Atlantic - Newfoundland: Past 24 Hour Conditions

 

Marticot Island

10:00 AM ADT 24 April 2014
This table is a summary of hourly weather conditions for the past 24 hours.
Date / Time
(ADT)
Wind(knots) Conditions Visibility(km) Pressure(kPa) Air tempC) Relative humidity(%) Dew pointC)
24 April 2014
10:00 NE 20 gust 31 N/A N/A 100.4 2 79 -1
9:00 NE 16 gust 28 N/A N/A 100.4 2 80 -1
8:00 NE 18 gust 29 N/A N/A 100.4 2 81 -2
7:00 NE 20 gust 37 N/A N/A 100.3 1 81 -2
6:00 NE 25 gust 42 N/A N/A 100.3 1 82 -2
5:00 NE 23 gust 34 N/A N/A 100.3 1 82 -2
4:00 NE 21 gust 35 N/A N/A 100.3 1 81 -2
3:00 NE 26 gust 34 N/A N/A 100.3 1 79 -2
2:00 NE 27 gust 36 N/A N/A 100.3 1 77 -3
1:00 NE 23 gust 32 N/A N/A 100.3 1 71 -3
0:00 NE 24 gust 33 N/A N/A 100.4 1 72 -3
23 April 2014
23:00 NE 20 gust 29 N/A N/A 100.4 1 76 -3
22:00 NE 23 gust 31 N/A N/A 100.5 1 87 -1
21:00 NE 22 gust 31 N/A N/A 100.5 1 90 -1
20:00 NE 22 gust 28 N/A N/A 100.5 1 91 -1
19:00 NE 22 gust 29 N/A N/A 100.5 1 88 -1
18:00 NE 19 gust 25 N/A N/A 100.5 2 84 0
17:00 NE 16 gust 25 N/A N/A 100.5 3 81 0
16:00 NE 15 gust 21 N/A N/A 100.5 4 78 1
15:00 NE 14 gust 19 N/A N/A 100.6 5 77 1
14:00 NE 14 gust 21 N/A N/A 100.7 6 71 1
13:00 NE 15 gust 22 N/A N/A 100.7 5 76 1
12:00 ENE 11 gust 17 N/A N/A 100.8 6 71 1
11:00 NE 11 gust 17 N/A N/A 100.9 6 73 1
10:00 ENE 11 N/A N/A 100.9 5 79 1
 
Map of Atlantic - Newfoundland marine weather areas Southwestern Grand Banks - 44138 Banquereau - 44139 Tail of the Bank - 44140 Nickerson Bank - 44251 Northeast Burgeo Bank - 44255 Blanc-Sablon Airport Cap Whittle Chevery Natashquan Airport Heath Point Miscou Island Grand Étang Ingonish Beach North Mountain St.Paul Island J.A. Douglas McCurdy Sydney Airport Charlottetown Airport East Point North Cape Argentia Bonavista Burgeo Cape Race Corner Brook Daniel's Harbour Englee Ferolle Point La Scie Port aux Basques Rocky Harbour Sagona Island St. Anthony Airport St. John's Int'l Airport St. Lawrence Stephenville Airport Twillingate Winterland Wreckhouse Cartwright Airport Mary's Harbour Grates Cove Pool's Island Marticot Island Long Pond Îles de la Madeleine Airport
Legend: buoyBuoy land stationLand Station